createdAt,value
2022-11-16T00:01:33.854Z,27.48
2022-11-16T00:04:02.556Z,26.85
2022-11-16T00:06:29.815Z,27.70
2022-11-16T00:09:18.198Z,25.75
2022-11-16T00:11:45.528Z,25.23
2022-11-16T00:14:12.636Z,23.73
2022-11-16T00:16:39.957Z,24.13
2022-11-16T00:19:07.357Z,25.05
2022-11-16T00:21:34.937Z,24.15
2022-11-16T00:24:03.280Z,23.85
2022-11-16T00:26:30.446Z,24.52
2022-11-16T00:28:57.781Z,24.23
2022-11-16T00:31:25.282Z,23.00
2022-11-16T00:33:52.648Z,26.98
2022-11-16T00:36:19.836Z,25.90
2022-11-16T00:38:47.612Z,25.65
2022-11-16T00:41:14.749Z,25.50
2022-11-16T00:43:41.867Z,24.38
2022-11-16T00:46:09.663Z,24.60
2022-11-16T00:48:36.960Z,24.38
2022-11-16T00:51:04.807Z,24.25
2022-11-16T00:53:33.133Z,22.73
2022-11-16T00:56:00.225Z,22.33
2022-11-16T00:58:28.437Z,23.25
2022-11-16T01:01:09.098Z,23.48
2022-11-16T01:03:37.233Z,24.80
2022-11-16T01:06:07.049Z,24.77
2022-11-16T01:08:36.947Z,22.77
2022-11-16T01:11:27.813Z,25.27
2022-11-16T01:13:55.639Z,25.17
2022-11-16T01:16:23.661Z,24.02
2022-11-16T01:18:53.247Z,24.35
2022-11-16T01:21:21.465Z,22.60
2022-11-16T01:23:49.097Z,24.42
2022-11-16T01:26:16.807Z,25.13
2022-11-16T01:28:44.558Z,26.17
2022-11-16T01:31:13.090Z,23.48
2022-11-16T01:33:41.090Z,24.27
2022-11-16T01:36:15.466Z,23.35
2022-11-16T01:38:45.604Z,24.33
2022-11-16T01:41:22.430Z,24.80
2022-11-16T01:44:25.980Z,24.08
2022-11-16T01:46:56.225Z,22.98
2022-11-16T01:49:25.647Z,24.23
2022-11-16T01:51:59.356Z,24.42
2022-11-16T01:54:30.955Z,26.10
2022-11-16T01:57:07.125Z,23.60
2022-11-16T01:59:47.146Z,24.73
2022-11-16T02:02:18.189Z,26.48
2022-11-16T02:04:47.606Z,25.70
2022-11-16T02:07:26.573Z,26.08
2022-11-16T02:10:20.762Z,25.17
2022-11-16T02:12:57.024Z,24.92
2022-11-16T02:15:45.529Z,23.58
2022-11-16T02:18:37.391Z,23.60
2022-11-16T02:21:17.202Z,24.35
2022-11-16T02:24:05.167Z,24.08
2022-11-16T02:26:41.866Z,26.63
2022-11-16T02:29:37.134Z,26.08
2022-11-16T02:32:08.486Z,25.95
2022-11-16T02:34:42.149Z,26.48
2022-11-16T02:37:14.981Z,24.73
2022-11-16T02:39:45.485Z,23.65
2022-11-16T02:42:18.482Z,25.75
2022-11-16T02:44:48.196Z,24.45
2022-11-16T02:47:24.825Z,22.90
2022-11-16T02:49:58.101Z,23.08
2022-11-16T02:52:28.356Z,23.60
2022-11-16T02:54:55.759Z,23.33
2022-11-16T02:57:57.537Z,22.95
2022-11-16T03:00:33.834Z,22.17
2022-11-16T03:03:16.507Z,22.30
2022-11-16T03:05:52.541Z,21.05
2022-11-16T03:08:33.824Z,22.00
2022-11-16T03:13:55.551Z,19.60
2022-11-16T03:16:28.405Z,21.15
2022-11-16T03:19:01.795Z,20.27
2022-11-16T03:21:37.520Z,19.95
2022-11-16T03:24:05.987Z,19.80
2022-11-16T03:26:42.889Z,21.42
2022-11-16T03:29:26.593Z,21.55
2022-11-16T03:32:02.913Z,20.38
2022-11-16T03:34:35.813Z,22.25
2022-11-16T03:37:05.645Z,22.05
2022-11-16T03:39:38.912Z,19.52
2022-11-16T03:42:14.060Z,21.70
2022-11-16T03:44:45.055Z,22.00
2022-11-16T03:47:13.384Z,21.13
2022-11-16T03:49:45.593Z,20.25
2022-11-16T03:52:16.205Z,22.98
2022-11-16T03:54:43.999Z,22.63
2022-11-16T03:57:15.585Z,22.95
2022-11-16T03:59:46.068Z,24.58
2022-11-16T04:02:13.330Z,21.15
2022-11-16T04:04:59.053Z,23.73
2022-11-16T04:07:44.867Z,24.13
2022-11-16T04:10:31.507Z,23.92
2022-11-16T04:13:18.873Z,26.58
2022-11-16T04:16:04.830Z,25.02
2022-11-16T04:18:50.431Z,22.55
2022-11-16T04:21:42.261Z,24.38
2022-11-16T04:24:15.185Z,25.10
2022-11-16T04:27:03.826Z,24.60
2022-11-16T04:29:31.754Z,26.08
2022-11-16T04:32:20.090Z,23.80
2022-11-16T04:35:06.184Z,24.50
2022-11-16T04:37:51.587Z,24.48
2022-11-16T04:40:29.724Z,23.77
2022-11-16T04:43:01.108Z,26.52
2022-11-16T04:45:51.359Z,27.75
2022-11-16T04:48:21.327Z,24.13
2022-11-16T04:50:53.209Z,26.15
2022-11-16T04:53:22.444Z,26.08
2022-11-16T04:56:00.609Z,27.45
2022-11-16T04:58:28.778Z,25.15
2022-11-16T05:00:56.287Z,25.80
2022-11-16T05:03:23.404Z,24.55
2022-11-16T05:05:51.033Z,23.17
2022-11-16T05:08:18.604Z,22.80
2022-11-16T05:10:51.098Z,23.65
2022-11-16T05:13:18.499Z,23.55
2022-11-16T05:15:46.172Z,23.27
2022-11-16T05:18:13.693Z,22.35
2022-11-16T05:20:59.485Z,23.33
2022-11-16T05:23:46.665Z,26.23
2022-11-16T05:26:16.158Z,22.58
2022-11-16T05:28:43.442Z,24.75
2022-11-16T05:31:12.669Z,22.23
2022-11-16T05:33:39.841Z,23.73
2022-11-16T05:36:08.262Z,23.05
2022-11-16T05:38:35.833Z,25.65
2022-11-16T05:41:03.266Z,23.17
2022-11-16T05:43:31.129Z,23.73
2022-11-16T05:46:09.679Z,23.73
2022-11-16T05:48:37.753Z,22.90
2022-11-16T05:51:06.501Z,25.38
2022-11-16T05:53:34.912Z,27.23
2022-11-16T05:56:02.605Z,25.77
2022-11-16T05:58:32.900Z,27.58
2022-11-16T06:01:00.711Z,28.42
2022-11-16T06:03:29.713Z,26.80
2022-11-16T06:05:58.177Z,24.33
2022-11-16T06:08:27.578Z,24.38
2022-11-16T06:11:01.837Z,23.65
2022-11-16T06:13:30.838Z,24.38
2022-11-16T06:16:01.145Z,22.23
2022-11-16T06:18:30.584Z,23.42
2022-11-16T06:20:58.153Z,23.08
2022-11-16T06:23:26.262Z,27.98
2022-11-16T06:25:55.328Z,20.77
2022-11-16T06:28:25.072Z,17.60
2022-11-16T06:30:52.330Z,16.38
2022-11-16T06:33:19.525Z,17.98
2022-11-16T06:35:47.092Z,19.73
2022-11-16T06:38:20.625Z,17.38
2022-11-16T06:40:51.873Z,18.77
2022-11-16T06:43:20.275Z,16.10
2022-11-16T06:45:56.025Z,15.90
2022-11-16T06:48:23.385Z,15.85
2022-11-16T06:50:52.091Z,18.10
2022-11-16T06:53:27.522Z,17.88
2022-11-16T06:56:05.969Z,17.88
2022-11-16T06:58:38.792Z,17.23
2022-11-16T07:01:09.870Z,18.73
2022-11-16T07:03:39.782Z,17.55
2022-11-16T07:06:10.191Z,17.45
2022-11-16T07:08:39.145Z,19.63
2022-11-16T07:11:08.056Z,18.77
2022-11-16T07:13:36.688Z,18.30
2022-11-16T07:16:07.621Z,19.77
2022-11-16T07:18:36.967Z,18.10
2022-11-16T07:21:07.896Z,16.33
2022-11-16T07:23:36.769Z,17.63
2022-11-16T07:26:06.600Z,18.65
2022-11-16T07:28:45.014Z,17.73
2022-11-16T07:31:17.065Z,22.42
2022-11-16T07:33:44.520Z,20.52
2022-11-16T07:36:37.483Z,20.70
2022-11-16T07:39:04.777Z,19.77
2022-11-16T07:41:31.945Z,19.60
2022-11-16T07:44:12.223Z,22.02
2022-11-16T07:46:46.969Z,22.55
2022-11-16T07:49:16.860Z,21.00
2022-11-16T07:52:10.107Z,19.30
2022-11-16T07:55:05.613Z,20.92
2022-11-16T07:57:33.737Z,22.48
2022-11-16T08:00:06.185Z,22.20
2022-11-16T08:02:46.918Z,20.52
2022-11-16T08:05:18.526Z,22.80
2022-11-16T08:07:46.578Z,18.45
2022-11-16T08:10:13.962Z,21.75
2022-11-16T08:12:41.452Z,20.42
2022-11-16T08:15:09.053Z,22.30
2022-11-16T08:17:36.197Z,21.60
2022-11-16T08:20:06.062Z,20.80
2022-11-16T08:22:33.146Z,21.63
2022-11-16T08:25:00.816Z,21.30
2022-11-16T08:27:28.571Z,20.40
2022-11-16T08:29:57.499Z,20.48
2022-11-16T08:32:24.929Z,23.50
2022-11-16T08:34:54.148Z,21.10
2022-11-16T08:37:23.280Z,23.08
2022-11-16T08:39:50.778Z,22.58
2022-11-16T08:42:20.541Z,23.38
2022-11-16T08:44:49.937Z,25.60
2022-11-16T08:47:20.327Z,25.45
2022-11-16T08:49:51.934Z,25.67
2022-11-16T08:52:21.525Z,23.05
2022-11-16T08:54:51.019Z,22.88
2022-11-16T08:57:19.268Z,23.33
2022-11-16T08:59:49.858Z,23.50
2022-11-16T09:02:18.439Z,23.02
2022-11-16T09:04:45.545Z,21.48
2022-11-16T09:07:12.697Z,22.77
2022-11-16T09:09:39.916Z,24.05
2022-11-16T09:12:07.102Z,22.60
2022-11-16T09:14:34.211Z,21.00
2022-11-16T09:17:01.397Z,21.25
2022-11-16T09:19:28.728Z,22.27
2022-11-16T09:21:55.876Z,21.83
2022-11-16T09:24:22.971Z,19.77
2022-11-16T09:26:50.154Z,19.90
2022-11-16T09:29:17.268Z,20.52
2022-11-16T09:31:45.313Z,20.10
2022-11-16T09:34:12.439Z,20.25
2022-11-16T09:36:39.583Z,18.67
2022-11-16T09:42:32.474Z,16.52
2022-11-16T09:45:12.374Z,14.93
2022-11-16T09:48:03.604Z,15.27
2022-11-16T09:50:57.570Z,13.65
2022-11-16T09:53:38.577Z,14.02
2022-11-16T09:56:17.773Z,13.10
2022-11-16T09:59:05.687Z,11.95
2022-11-16T10:01:40.392Z,11.45
2022-11-16T10:04:18.155Z,10.27
2022-11-16T10:07:12.152Z,10.52
2022-11-16T10:09:39.641Z,9.52
2022-11-16T10:12:09.482Z,10.02
2022-11-16T10:15:12.749Z,9.05
2022-11-16T10:17:57.840Z,8.77
2022-11-16T10:20:51.917Z,9.25
2022-11-16T10:23:27.620Z,7.53
2022-11-16T10:26:22.125Z,8.48
2022-11-16T10:29:13.748Z,9.60
2022-11-16T10:32:17.690Z,8.82
2022-11-16T10:34:57.015Z,9.23
2022-11-16T10:37:30.206Z,7.60
2022-11-16T10:39:57.565Z,7.82
2022-11-16T10:42:46.957Z,7.07
2022-11-16T10:45:20.894Z,7.13
2022-11-16T10:47:57.436Z,6.80
2022-11-16T10:50:37.663Z,8.50
2022-11-16T10:53:04.822Z,6.85
2022-11-16T10:55:32.277Z,6.70
2022-11-16T10:58:05.206Z,5.82
2022-11-16T11:00:41.420Z,6.10
2022-11-16T11:03:10.784Z,6.03
2022-11-16T11:05:47.946Z,5.22
2022-11-16T11:08:25.966Z,5.00
2022-11-16T11:11:24.800Z,6.50
2022-11-16T11:14:09.313Z,5.60
2022-11-16T11:16:36.975Z,5.97
2022-11-16T11:19:25.758Z,6.05
2022-11-16T11:22:00.367Z,7.32
2022-11-16T11:24:44.476Z,6.65
2022-11-16T11:27:12.425Z,7.47
2022-11-16T11:29:42.896Z,7.22
2022-11-16T11:32:23.840Z,7.90
2022-11-16T11:34:56.145Z,8.88
2022-11-16T11:37:35.681Z,8.80
2022-11-16T11:40:17.196Z,10.02
2022-11-16T11:42:57.930Z,9.70
2022-11-16T11:45:32.845Z,11.02
2022-11-16T11:48:08.001Z,11.25
2022-11-16T11:50:54.984Z,10.18
2022-11-16T11:53:46.637Z,11.43
2022-11-16T11:56:14.623Z,12.48
2022-11-16T11:58:43.258Z,12.68
2022-11-16T12:01:20.716Z,12.63
2022-11-16T12:04:28.280Z,12.13
2022-11-16T12:09:58.078Z,12.52
2022-11-16T12:12:55.948Z,13.73
2022-11-16T12:15:36.051Z,13.02
2022-11-16T12:18:08.940Z,12.55
2022-11-16T12:20:46.694Z,12.13
2022-11-16T12:23:26.016Z,13.15
2022-11-16T12:26:32.938Z,11.25
2022-11-16T12:29:23.879Z,11.85
2022-11-16T12:32:28.028Z,10.02
2022-11-16T12:35:07.527Z,10.93
2022-11-16T12:37:59.940Z,10.65
2022-11-16T12:40:42.224Z,11.52
2022-11-16T12:43:15.363Z,11.85
2022-11-16T12:46:00.220Z,11.50
2022-11-16T12:48:45.216Z,12.93
2022-11-16T12:51:33.329Z,11.05
2022-11-16T12:54:06.389Z,10.70
2022-11-16T12:56:51.433Z,10.20
2022-11-16T12:59:46.263Z,12.10
2022-11-16T13:02:35.458Z,10.73
2022-11-16T13:05:39.833Z,10.95
2022-11-16T13:08:17.985Z,9.85
2022-11-16T13:10:49.104Z,9.80
2022-11-16T13:13:38.332Z,10.38
2022-11-16T13:16:07.224Z,9.05
2022-11-16T13:18:40.169Z,10.50
2022-11-16T13:21:13.357Z,11.35
2022-11-16T13:23:49.521Z,10.52
2022-11-16T13:26:41.078Z,11.10
2022-11-16T13:29:37.013Z,10.88
2022-11-16T13:32:36.280Z,9.85
2022-11-16T13:35:06.421Z,11.75
2022-11-16T13:37:39.433Z,10.90
2022-11-16T13:40:06.516Z,11.50
2022-11-16T13:42:42.984Z,10.55
2022-11-16T13:45:19.689Z,10.80
2022-11-16T13:47:55.709Z,10.15
2022-11-16T13:50:37.086Z,10.20
2022-11-16T13:56:01.878Z,9.85
2022-11-16T13:58:31.133Z,10.82
2022-11-16T14:01:10.408Z,10.95
2022-11-16T14:03:39.941Z,9.43
2022-11-16T14:06:13.273Z,9.68
2022-11-16T14:08:40.304Z,11.02
2022-11-16T14:11:30.641Z,10.13
2022-11-16T14:14:01.204Z,10.38
2022-11-16T14:16:29.138Z,9.68
2022-11-16T14:19:00.113Z,9.23
2022-11-16T14:21:49.779Z,9.98
2022-11-16T14:24:43.453Z,11.30
2022-11-16T14:27:31.020Z,10.43
2022-11-16T14:30:31.125Z,10.80
2022-11-16T14:32:58.673Z,10.02
2022-11-16T14:35:30.285Z,9.75
2022-11-16T14:38:00.836Z,9.55
2022-11-16T14:40:28.656Z,9.55
2022-11-16T14:43:16.382Z,10.45
2022-11-16T14:45:49.694Z,10.93
2022-11-16T14:48:19.300Z,10.75
2022-11-16T14:51:00.453Z,10.40
2022-11-16T14:53:29.355Z,9.20
2022-11-16T14:56:16.692Z,10.32
2022-11-16T14:58:58.852Z,12.13
2022-11-16T15:01:35.728Z,10.25
2022-11-16T15:04:12.469Z,11.20
2022-11-16T15:06:53.166Z,11.13
2022-11-16T15:09:29.941Z,10.65
2022-11-16T15:12:17.490Z,10.30
2022-11-16T15:14:49.809Z,11.45
2022-11-16T15:17:19.718Z,10.55
2022-11-16T15:20:00.964Z,11.57
2022-11-16T15:22:30.598Z,10.73
2022-11-16T15:25:01.438Z,10.20
2022-11-16T15:27:37.750Z,11.85
2022-11-16T15:30:16.192Z,12.57
2022-11-16T15:32:45.259Z,11.23
2022-11-16T15:35:32.375Z,11.00
2022-11-16T15:38:11.753Z,11.43
2022-11-16T15:40:39.234Z,10.75
2022-11-16T15:43:06.945Z,10.93
2022-11-16T15:45:34.554Z,12.00
2022-11-16T15:48:03.431Z,10.63
2022-11-16T15:50:31.518Z,10.90
2022-11-16T15:52:59.788Z,10.27
2022-11-16T15:55:30.596Z,11.93
2022-11-16T15:58:05.342Z,11.65
2022-11-16T16:00:35.530Z,11.82
2022-11-16T16:03:07.034Z,11.73
2022-11-16T16:05:36.780Z,10.82
2022-11-16T16:08:05.654Z,11.23
2022-11-16T16:10:33.030Z,13.48
2022-11-16T16:13:01.348Z,12.60
2022-11-16T16:15:33.798Z,12.20
2022-11-16T16:18:02.524Z,13.38
2022-11-16T16:20:32.133Z,13.57
2022-11-16T16:23:12.906Z,13.70
2022-11-16T16:25:40.005Z,13.45
2022-11-16T16:28:07.099Z,13.90
2022-11-16T16:30:34.978Z,14.30
2022-11-16T16:33:02.390Z,14.50
2022-11-16T16:35:29.657Z,15.73
2022-11-16T16:37:58.905Z,15.18
2022-11-16T16:40:26.499Z,15.50
2022-11-16T16:42:55.590Z,17.30
2022-11-16T16:45:43.726Z,15.25
2022-11-16T16:48:12.574Z,14.70
2022-11-16T16:50:39.794Z,15.52
2022-11-16T16:53:06.987Z,15.73
2022-11-16T16:55:37.520Z,15.80
2022-11-16T16:58:05.696Z,16.00
2022-11-16T17:00:33.012Z,18.00
2022-11-16T17:03:00.137Z,17.77
2022-11-16T17:05:27.274Z,15.73
2022-11-16T17:07:56.070Z,16.77
2022-11-16T17:10:23.528Z,16.30
2022-11-16T17:12:54.105Z,17.98
2022-11-16T17:15:21.707Z,17.90
2022-11-16T17:17:48.954Z,20.02
2022-11-16T17:20:16.430Z,18.80
2022-11-16T17:22:43.970Z,18.67
2022-11-16T17:25:11.105Z,21.45
2022-11-16T17:27:38.315Z,18.85
2022-11-16T17:30:05.977Z,19.65
2022-11-16T17:32:33.118Z,19.20
2022-11-16T17:35:00.252Z,20.55
2022-11-16T17:37:27.356Z,20.20
2022-11-16T17:39:54.451Z,21.23
2022-11-16T17:42:21.586Z,19.60
2022-11-16T17:44:49.606Z,20.83
2022-11-16T17:47:16.688Z,19.20
2022-11-16T17:49:43.778Z,18.60
2022-11-16T17:52:10.943Z,18.38
2022-11-16T17:54:38.103Z,20.23
2022-11-16T17:57:05.257Z,18.35
2022-11-16T17:59:32.812Z,19.70
2022-11-16T18:01:59.901Z,18.75
2022-11-16T18:04:27.062Z,19.52
2022-11-16T18:06:54.264Z,20.25
2022-11-16T18:09:21.490Z,20.30
2022-11-16T18:11:48.589Z,22.05
2022-11-16T18:14:15.705Z,20.52
2022-11-16T18:16:43.454Z,20.95
2022-11-16T18:19:16.709Z,20.38
2022-11-16T18:21:44.416Z,19.45
2022-11-16T18:24:12.502Z,20.65
2022-11-16T18:26:40.494Z,21.30
2022-11-16T18:29:12.104Z,20.05
2022-11-16T18:31:39.299Z,20.42
2022-11-16T18:34:06.406Z,20.40
2022-11-16T18:36:33.734Z,19.23
2022-11-16T18:39:00.900Z,21.42
2022-11-16T18:41:29.568Z,20.42
2022-11-16T18:44:01.559Z,22.63
2022-11-16T18:46:31.001Z,22.67
2022-11-16T18:48:58.969Z,21.77
2022-11-16T18:51:27.496Z,24.52
2022-11-16T18:53:55.195Z,22.00
2022-11-16T18:56:23.425Z,22.27
2022-11-16T18:58:52.421Z,22.60
2022-11-16T19:01:25.035Z,21.55
2022-11-16T19:03:53.779Z,22.45
2022-11-16T19:06:21.956Z,22.17
2022-11-16T19:08:56.350Z,23.02
2022-11-16T19:11:24.525Z,22.42
2022-11-16T19:13:56.973Z,23.17
2022-11-16T19:16:24.688Z,21.83
2022-11-16T19:18:52.365Z,20.90
2022-11-16T19:21:19.704Z,21.42
2022-11-16T19:23:48.980Z,22.45
2022-11-16T19:26:17.729Z,23.10
2022-11-16T19:28:46.889Z,23.27
2022-11-16T19:31:16.139Z,24.13
2022-11-16T19:33:44.490Z,24.10
2022-11-16T19:36:14.259Z,23.05
2022-11-16T19:38:42.144Z,24.63
2022-11-16T19:41:11.423Z,24.13
2022-11-16T19:43:39.003Z,23.70
2022-11-16T19:46:08.748Z,21.75
2022-11-16T19:48:36.043Z,22.75
2022-11-16T19:51:07.835Z,22.55
2022-11-16T19:53:35.770Z,24.58
2022-11-16T19:56:03.953Z,24.00
2022-11-16T19:58:32.038Z,27.90
2022-11-16T20:01:07.787Z,23.77
2022-11-16T20:03:38.102Z,24.15
2022-11-16T20:06:07.896Z,25.50
2022-11-16T20:08:35.945Z,25.60
2022-11-16T20:11:17.715Z,24.00
2022-11-16T20:13:44.829Z,25.15
2022-11-16T20:16:13.173Z,25.25
2022-11-16T20:18:41.499Z,25.13
2022-11-16T20:21:13.282Z,25.45
2022-11-16T20:23:40.393Z,24.90
2022-11-16T20:26:09.747Z,25.33
2022-11-16T20:28:39.338Z,24.38
2022-11-16T20:31:13.473Z,23.70
2022-11-16T20:33:41.602Z,22.85
2022-11-16T20:36:11.892Z,24.98
2022-11-16T20:38:39.602Z,24.15
2022-11-16T20:41:29.908Z,22.00
2022-11-16T20:43:58.942Z,22.98
2022-11-16T20:46:28.609Z,20.58
2022-11-16T20:48:57.172Z,22.52
2022-11-16T20:51:24.732Z,22.77
2022-11-16T20:53:52.458Z,20.45
2022-11-16T20:56:19.822Z,21.02
2022-11-16T20:58:48.533Z,22.60
2022-11-16T21:01:20.829Z,23.08
2022-11-16T21:03:48.113Z,22.65
2022-11-16T21:06:15.244Z,21.77
2022-11-16T21:08:42.457Z,23.63
2022-11-16T21:11:14.550Z,20.83
2022-11-16T21:14:00.526Z,19.83
2022-11-16T21:16:27.618Z,19.80
2022-11-16T21:18:55.650Z,18.77
2022-11-16T21:21:22.853Z,18.13
2022-11-16T21:23:54.034Z,19.05
2022-11-16T21:26:29.081Z,19.60
2022-11-16T21:28:57.798Z,18.95
2022-11-16T21:31:27.654Z,20.67
2022-11-16T21:33:55.631Z,19.15
2022-11-16T21:36:25.410Z,19.85
2022-11-16T21:38:53.047Z,18.98
2022-11-16T21:41:22.961Z,20.40
2022-11-16T21:43:50.375Z,19.85
2022-11-16T21:46:18.481Z,21.38
2022-11-16T21:48:47.948Z,21.27
2022-11-16T21:51:17.373Z,19.17
2022-11-16T21:53:45.021Z,21.45
2022-11-16T21:56:14.445Z,20.48
2022-11-16T21:58:42.153Z,21.42
2022-11-16T22:01:10.876Z,20.98
2022-11-16T22:03:38.904Z,22.05
2022-11-16T22:06:26.396Z,21.67
2022-11-16T22:08:53.480Z,21.25
2022-11-16T22:11:21.998Z,20.92
2022-11-16T22:13:50.147Z,22.13
2022-11-16T22:16:18.565Z,21.83
2022-11-16T22:18:45.742Z,21.00
2022-11-16T22:21:12.989Z,20.08
2022-11-16T22:23:40.482Z,21.90
2022-11-16T22:26:10.792Z,20.23
2022-11-16T22:28:39.288Z,19.65
2022-11-16T22:31:09.648Z,21.98
2022-11-16T22:33:37.650Z,21.02
2022-11-16T22:36:05.749Z,20.15
2022-11-16T22:38:33.441Z,20.88
2022-11-16T22:41:00.549Z,20.55
2022-11-16T22:43:29.903Z,18.77
2022-11-16T22:45:58.937Z,19.08
2022-11-16T22:48:34.041Z,19.95
2022-11-16T22:51:22.396Z,18.77
2022-11-16T22:53:54.316Z,17.98
2022-11-16T22:56:22.055Z,18.17
2022-11-16T22:58:49.417Z,18.90
2022-11-16T23:01:16.685Z,18.27
2022-11-16T23:03:43.884Z,18.25
2022-11-16T23:06:11.106Z,18.45
2022-11-16T23:08:39.949Z,17.65
2022-11-16T23:11:26.815Z,16.85
2022-11-16T23:14:12.783Z,17.83
2022-11-16T23:16:40.748Z,16.63
2022-11-16T23:19:28.646Z,17.27
2022-11-16T23:22:15.451Z,16.95
2022-11-16T23:25:01.721Z,18.73
2022-11-16T23:27:40.616Z,17.13
2022-11-16T23:30:12.391Z,16.25
2022-11-16T23:32:41.681Z,17.38
2022-11-16T23:35:10.009Z,17.70
2022-11-16T23:37:57.463Z,16.88
2022-11-16T23:40:29.823Z,16.70
2022-11-16T23:43:16.362Z,16.92
2022-11-16T23:45:43.902Z,17.13
2022-11-16T23:48:12.636Z,16.90
2022-11-16T23:50:39.740Z,15.52
2022-11-16T23:53:08.256Z,16.75
2022-11-16T23:55:40.525Z,16.67
2022-11-16T23:58:12.592Z,16.45
